sensor_id;sensor_type;location;lat;lon;timestamp;P1;durP1;ratioP1;P2;durP2;ratioP2
55216;SDS011;41086;46.736;15.666;2022-10-16T00:01:07;605.55;;;105.13;;
55216;SDS011;41086;46.736;15.666;2022-10-16T00:03:37;366.83;;;80.63;;
55216;SDS011;41086;46.736;15.666;2022-10-16T00:06:05;232.95;;;64.72;;
55216;SDS011;41086;46.736;15.666;2022-10-16T00:08:33;222.70;;;69.13;;
55216;SDS011;41086;46.736;15.666;2022-10-16T00:11:04;405.25;;;85.55;;
55216;SDS011;41086;46.736;15.666;2022-10-16T00:13:34;365.60;;;82.53;;
55216;SDS011;41086;46.736;15.666;2022-10-16T00:16:02;563.00;;;98.07;;
55216;SDS011;41086;46.736;15.666;2022-10-16T00:18:30;530.28;;;97.07;;
55216;SDS011;41086;46.736;15.666;2022-10-16T00:21:07;316.63;;;77.25;;
55216;SDS011;41086;46.736;15.666;2022-10-16T00:23:36;378.88;;;82.28;;
55216;SDS011;41086;46.736;15.666;2022-10-16T00:26:05;250.90;;;70.90;;
55216;SDS011;41086;46.736;15.666;2022-10-16T00:28:34;258.70;;;74.85;;
55216;SDS011;41086;46.736;15.666;2022-10-16T00:31:03;265.67;;;75.47;;
55216;SDS011;41086;46.736;15.666;2022-10-16T00:33:35;389.58;;;82.88;;
55216;SDS011;41086;46.736;15.666;2022-10-16T00:36:02;288.83;;;78.38;;
55216;SDS011;41086;46.736;15.666;2022-10-16T00:38:30;364.70;;;77.65;;
55216;SDS011;41086;46.736;15.666;2022-10-16T00:40:57;341.83;;;79.63;;
55216;SDS011;41086;46.736;15.666;2022-10-16T00:43:34;421.38;;;82.07;;
55216;SDS011;41086;46.736;15.666;2022-10-16T00:48:29;576.53;;;88.25;;
55216;SDS011;41086;46.736;15.666;2022-10-16T00:50:56;481.65;;;84.30;;
55216;SDS011;41086;46.736;15.666;2022-10-16T00:53:24;493.30;;;86.25;;
55216;SDS011;41086;46.736;15.666;2022-10-16T00:55:52;571.38;;;95.22;;
55216;SDS011;41086;46.736;15.666;2022-10-16T01:00:46;630.95;;;100.20;;
55216;SDS011;41086;46.736;15.666;2022-10-16T01:03:23;378.10;;;80.25;;
55216;SDS011;41086;46.736;15.666;2022-10-16T01:12:10;389.83;;;77.03;;
55216;SDS011;41086;46.736;15.666;2022-10-16T01:17:28;208.63;;;61.42;;
55216;SDS011;41086;46.736;15.666;2022-10-16T01:20:26;144.88;;;54.40;;
55216;SDS011;41086;46.736;15.666;2022-10-16T01:28:44;156.85;;;52.30;;
55216;SDS011;41086;46.736;15.666;2022-10-16T01:31:18;322.85;;;68.72;;
55216;SDS011;41086;46.736;15.666;2022-10-16T01:33:51;495.17;;;80.03;;
55216;SDS011;41086;46.736;15.666;2022-10-16T01:36:28;298.13;;;68.40;;
55216;SDS011;41086;46.736;15.666;2022-10-16T01:39:09;187.20;;;64.45;;
55216;SDS011;41086;46.736;15.666;2022-10-16T01:41:44;193.45;;;64.82;;
55216;SDS011;41086;46.736;15.666;2022-10-16T01:46:52;205.00;;;68.97;;
55216;SDS011;41086;46.736;15.666;2022-10-16T01:49:20;209.93;;;71.57;;
55216;SDS011;41086;46.736;15.666;2022-10-16T01:51:50;193.45;;;71.60;;
55216;SDS011;41086;46.736;15.666;2022-10-16T01:54:21;171.05;;;65.60;;
55216;SDS011;41086;46.736;15.666;2022-10-16T01:56:52;193.18;;;68.43;;
55216;SDS011;41086;46.736;15.666;2022-10-16T01:59:21;223.00;;;74.15;;
55216;SDS011;41086;46.736;15.666;2022-10-16T02:01:52;217.25;;;69.75;;
55216;SDS011;41086;46.736;15.666;2022-10-16T02:04:29;209.63;;;70.35;;
55216;SDS011;41086;46.736;15.666;2022-10-16T02:06:57;214.13;;;69.28;;
55216;SDS011;41086;46.736;15.666;2022-10-16T02:09:24;192.63;;;67.30;;
55216;SDS011;41086;46.736;15.666;2022-10-16T02:11:52;198.98;;;67.30;;
55216;SDS011;41086;46.736;15.666;2022-10-16T02:14:21;186.88;;;68.78;;
55216;SDS011;41086;46.736;15.666;2022-10-16T02:16:50;175.27;;;65.65;;
55216;SDS011;41086;46.736;15.666;2022-10-16T02:19:17;186.50;;;68.88;;
55216;SDS011;41086;46.736;15.666;2022-10-16T02:21:54;176.55;;;66.65;;
55216;SDS011;41086;46.736;15.666;2022-10-16T02:27:27;156.80;;;58.83;;
55216;SDS011;41086;46.736;15.666;2022-10-16T02:30:06;167.82;;;62.58;;
55216;SDS011;41086;46.736;15.666;2022-10-16T02:32:39;169.48;;;60.95;;
55216;SDS011;41086;46.736;15.666;2022-10-16T02:35:09;203.88;;;70.75;;
55216;SDS011;41086;46.736;15.666;2022-10-16T02:37:37;201.95;;;67.00;;
55216;SDS011;41086;46.736;15.666;2022-10-16T02:40:07;188.95;;;70.38;;
55216;SDS011;41086;46.736;15.666;2022-10-16T02:42:35;234.60;;;72.13;;
55216;SDS011;41086;46.736;15.666;2022-10-16T02:45:03;258.73;;;76.93;;
55216;SDS011;41086;46.736;15.666;2022-10-16T02:47:34;212.02;;;72.18;;
55216;SDS011;41086;46.736;15.666;2022-10-16T02:50:01;195.23;;;70.63;;
55216;SDS011;41086;46.736;15.666;2022-10-16T02:52:28;174.02;;;63.95;;
55216;SDS011;41086;46.736;15.666;2022-10-16T02:54:55;152.80;;;63.72;;
55216;SDS011;41086;46.736;15.666;2022-10-16T02:57:22;168.98;;;64.38;;
55216;SDS011;41086;46.736;15.666;2022-10-16T03:02:16;182.93;;;64.78;;
55216;SDS011;41086;46.736;15.666;2022-10-16T03:04:43;196.48;;;68.65;;
55216;SDS011;41086;46.736;15.666;2022-10-16T03:07:09;180.32;;;64.85;;
55216;SDS011;41086;46.736;15.666;2022-10-16T03:09:36;171.40;;;64.20;;
55216;SDS011;41086;46.736;15.666;2022-10-16T03:12:03;178.35;;;65.55;;
55216;SDS011;41086;46.736;15.666;2022-10-16T03:14:30;187.95;;;66.22;;
55216;SDS011;41086;46.736;15.666;2022-10-16T03:16:57;190.30;;;64.40;;
55216;SDS011;41086;46.736;15.666;2022-10-16T03:19:23;161.00;;;63.30;;
55216;SDS011;41086;46.736;15.666;2022-10-16T03:21:50;185.82;;;66.82;;
55216;SDS011;41086;46.736;15.666;2022-10-16T03:24:17;165.00;;;64.75;;
55216;SDS011;41086;46.736;15.666;2022-10-16T03:26:44;162.68;;;61.83;;
55216;SDS011;41086;46.736;15.666;2022-10-16T03:29:10;166.18;;;61.65;;
55216;SDS011;41086;46.736;15.666;2022-10-16T03:31:37;162.77;;;62.20;;
55216;SDS011;41086;46.736;15.666;2022-10-16T03:34:04;235.85;;;70.15;;
55216;SDS011;41086;46.736;15.666;2022-10-16T03:36:31;171.98;;;63.00;;
55216;SDS011;41086;46.736;15.666;2022-10-16T03:38:57;138.43;;;59.80;;
55216;SDS011;41086;46.736;15.666;2022-10-16T03:41:24;171.68;;;59.45;;
55216;SDS011;41086;46.736;15.666;2022-10-16T03:43:51;242.02;;;66.93;;
55216;SDS011;41086;46.736;15.666;2022-10-16T03:46:18;216.60;;;63.25;;
55216;SDS011;41086;46.736;15.666;2022-10-16T03:48:44;169.45;;;57.28;;
55216;SDS011;41086;46.736;15.666;2022-10-16T03:51:11;178.55;;;62.08;;
55216;SDS011;41086;46.736;15.666;2022-10-16T03:53:38;167.13;;;58.30;;
55216;SDS011;41086;46.736;15.666;2022-10-16T03:56:05;149.68;;;56.97;;
55216;SDS011;41086;46.736;15.666;2022-10-16T03:58:32;161.30;;;56.40;;
55216;SDS011;41086;46.736;15.666;2022-10-16T04:00:59;164.80;;;54.17;;
55216;SDS011;41086;46.736;15.666;2022-10-16T04:03:25;183.77;;;57.30;;
55216;SDS011;41086;46.736;15.666;2022-10-16T04:05:52;217.57;;;59.22;;
55216;SDS011;41086;46.736;15.666;2022-10-16T04:08:19;178.05;;;59.88;;
55216;SDS011;41086;46.736;15.666;2022-10-16T04:10:46;179.75;;;61.25;;
55216;SDS011;41086;46.736;15.666;2022-10-16T04:13:13;222.05;;;66.32;;
55216;SDS011;41086;46.736;15.666;2022-10-16T04:15:40;219.85;;;67.75;;
55216;SDS011;41086;46.736;15.666;2022-10-16T04:20:33;188.07;;;65.10;;
55216;SDS011;41086;46.736;15.666;2022-10-16T04:23:00;170.27;;;60.33;;
55216;SDS011;41086;46.736;15.666;2022-10-16T04:25:27;160.30;;;60.67;;
55216;SDS011;41086;46.736;15.666;2022-10-16T04:27:54;169.82;;;59.58;;
55216;SDS011;41086;46.736;15.666;2022-10-16T04:30:21;185.20;;;63.20;;
55216;SDS011;41086;46.736;15.666;2022-10-16T04:32:52;158.38;;;55.05;;
55216;SDS011;41086;46.736;15.666;2022-10-16T04:35:19;159.20;;;57.45;;
55216;SDS011;41086;46.736;15.666;2022-10-16T04:37:47;156.40;;;56.60;;
55216;SDS011;41086;46.736;15.666;2022-10-16T04:40:14;173.60;;;67.50;;
55216;SDS011;41086;46.736;15.666;2022-10-16T04:42:41;180.68;;;62.53;;
55216;SDS011;41086;46.736;15.666;2022-10-16T04:45:07;207.48;;;63.80;;
55216;SDS011;41086;46.736;15.666;2022-10-16T04:47:40;162.80;;;55.60;;
55216;SDS011;41086;46.736;15.666;2022-10-16T04:50:07;280.77;;;67.55;;
55216;SDS011;41086;46.736;15.666;2022-10-16T04:55:05;156.82;;;55.83;;
55216;SDS011;41086;46.736;15.666;2022-10-16T04:57:33;131.10;;;54.63;;
55216;SDS011;41086;46.736;15.666;2022-10-16T05:00:00;139.13;;;54.90;;
55216;SDS011;41086;46.736;15.666;2022-10-16T05:02:27;161.93;;;57.63;;
55216;SDS011;41086;46.736;15.666;2022-10-16T05:04:54;187.90;;;61.03;;
55216;SDS011;41086;46.736;15.666;2022-10-16T05:07:21;682.40;;;104.03;;
55216;SDS011;41086;46.736;15.666;2022-10-16T05:09:47;204.40;;;61.03;;
55216;SDS011;41086;46.736;15.666;2022-10-16T05:12:14;507.30;;;82.72;;
55216;SDS011;41086;46.736;15.666;2022-10-16T05:14:41;214.38;;;63.60;;
55216;SDS011;41086;46.736;15.666;2022-10-16T05:17:07;325.17;;;72.80;;
55216;SDS011;41086;46.736;15.666;2022-10-16T05:19:34;574.00;;;100.47;;
55216;SDS011;41086;46.736;15.666;2022-10-16T05:22:01;613.60;;;100.68;;
55216;SDS011;41086;46.736;15.666;2022-10-16T05:24:28;616.22;;;96.13;;
55216;SDS011;41086;46.736;15.666;2022-10-16T05:26:54;660.22;;;100.20;;
55216;SDS011;41086;46.736;15.666;2022-10-16T05:29:21;708.92;;;106.82;;
55216;SDS011;41086;46.736;15.666;2022-10-16T05:31:51;938.72;;;123.10;;
55216;SDS011;41086;46.736;15.666;2022-10-16T05:34:20;726.15;;;104.45;;
55216;SDS011;41086;46.736;15.666;2022-10-16T05:36:47;900.90;;;121.75;;
55216;SDS011;41086;46.736;15.666;2022-10-16T05:39:14;930.28;;;126.00;;
55216;SDS011;41086;46.736;15.666;2022-10-16T05:41:42;1062.20;;;152.30;;
55216;SDS011;41086;46.736;15.666;2022-10-16T05:44:09;872.88;;;121.15;;
55216;SDS011;41086;46.736;15.666;2022-10-16T05:46:36;735.83;;;103.57;;
55216;SDS011;41086;46.736;15.666;2022-10-16T05:49:03;826.05;;;109.47;;
55216;SDS011;41086;46.736;15.666;2022-10-16T05:51:30;1014.92;;;128.60;;
55216;SDS011;41086;46.736;15.666;2022-10-16T05:53:57;1010.67;;;137.52;;
55216;SDS011;41086;46.736;15.666;2022-10-16T05:56:23;884.05;;;126.63;;
55216;SDS011;41086;46.736;15.666;2022-10-16T05:58:50;910.17;;;121.32;;
55216;SDS011;41086;46.736;15.666;2022-10-16T06:01:18;818.33;;;114.70;;
55216;SDS011;41086;46.736;15.666;2022-10-16T06:03:47;855.92;;;118.40;;
55216;SDS011;41086;46.736;15.666;2022-10-16T06:06:18;835.83;;;117.80;;
55216;SDS011;41086;46.736;15.666;2022-10-16T06:08:47;563.30;;;85.78;;
55216;SDS011;41086;46.736;15.666;2022-10-16T06:11:16;557.05;;;85.53;;
55216;SDS011;41086;46.736;15.666;2022-10-16T06:13:44;621.42;;;89.07;;
55216;SDS011;41086;46.736;15.666;2022-10-16T06:16:12;590.88;;;84.90;;
55216;SDS011;41086;46.736;15.666;2022-10-16T06:18:39;628.83;;;94.25;;
55216;SDS011;41086;46.736;15.666;2022-10-16T06:21:07;839.67;;;124.60;;
55216;SDS011;41086;46.736;15.666;2022-10-16T06:23:36;572.72;;;93.25;;
55216;SDS011;41086;46.736;15.666;2022-10-16T06:26:07;595.22;;;95.85;;
55216;SDS011;41086;46.736;15.666;2022-10-16T06:28:34;569.22;;;89.30;;
55216;SDS011;41086;46.736;15.666;2022-10-16T06:31:02;949.55;;;142.18;;
55216;SDS011;41086;46.736;15.666;2022-10-16T06:33:33;889.35;;;133.55;;
55216;SDS011;41086;46.736;15.666;2022-10-16T06:36:02;473.67;;;95.15;;
55216;SDS011;41086;46.736;15.666;2022-10-16T06:38:30;562.67;;;103.75;;
55216;SDS011;41086;46.736;15.666;2022-10-16T06:40:57;949.28;;;154.00;;
55216;SDS011;41086;46.736;15.666;2022-10-16T06:43:25;578.97;;;92.40;;
55216;SDS011;41086;46.736;15.666;2022-10-16T06:45:56;1014.95;;;150.73;;
55216;SDS011;41086;46.736;15.666;2022-10-16T06:48:23;659.70;;;100.35;;
55216;SDS011;41086;46.736;15.666;2022-10-16T06:53:36;620.15;;;101.03;;
55216;SDS011;41086;46.736;15.666;2022-10-16T06:56:26;534.85;;;86.68;;
55216;SDS011;41086;46.736;15.666;2022-10-16T06:58:54;481.13;;;81.10;;
55216;SDS011;41086;46.736;15.666;2022-10-16T07:01:22;611.67;;;101.20;;
55216;SDS011;41086;46.736;15.666;2022-10-16T07:03:50;368.27;;;70.82;;
55216;SDS011;41086;46.736;15.666;2022-10-16T07:06:17;385.77;;;68.32;;
55216;SDS011;41086;46.736;15.666;2022-10-16T07:08:46;464.60;;;81.13;;
55216;SDS011;41086;46.736;15.666;2022-10-16T07:11:14;440.08;;;79.97;;
55216;SDS011;41086;46.736;15.666;2022-10-16T07:13:43;323.35;;;63.33;;
55216;SDS011;41086;46.736;15.666;2022-10-16T07:16:19;433.48;;;76.43;;
55216;SDS011;41086;46.736;15.666;2022-10-16T07:18:47;246.75;;;60.45;;
55216;SDS011;41086;46.736;15.666;2022-10-16T07:21:16;229.13;;;57.75;;
55216;SDS011;41086;46.736;15.666;2022-10-16T07:23:50;181.77;;;61.53;;
55216;SDS011;41086;46.736;15.666;2022-10-16T07:26:18;250.00;;;70.00;;
55216;SDS011;41086;46.736;15.666;2022-10-16T07:28:46;257.83;;;73.85;;
55216;SDS011;41086;46.736;15.666;2022-10-16T07:31:14;504.38;;;95.90;;
55216;SDS011;41086;46.736;15.666;2022-10-16T07:33:42;251.95;;;70.90;;
55216;SDS011;41086;46.736;15.666;2022-10-16T07:36:11;156.27;;;62.17;;
55216;SDS011;41086;46.736;15.666;2022-10-16T07:38:42;243.65;;;69.28;;
55216;SDS011;41086;46.736;15.666;2022-10-16T07:41:16;134.65;;;55.78;;
55216;SDS011;41086;46.736;15.666;2022-10-16T07:43:46;95.60;;;50.13;;
55216;SDS011;41086;46.736;15.666;2022-10-16T07:46:15;148.63;;;60.30;;
55216;SDS011;41086;46.736;15.666;2022-10-16T07:48:43;86.47;;;48.55;;
55216;SDS011;41086;46.736;15.666;2022-10-16T07:51:15;85.20;;;46.20;;
55216;SDS011;41086;46.736;15.666;2022-10-16T07:53:45;102.47;;;46.53;;
55216;SDS011;41086;46.736;15.666;2022-10-16T07:56:12;146.23;;;49.65;;
55216;SDS011;41086;46.736;15.666;2022-10-16T07:58:39;84.47;;;43.80;;
55216;SDS011;41086;46.736;15.666;2022-10-16T08:01:07;91.70;;;42.10;;
55216;SDS011;41086;46.736;15.666;2022-10-16T08:03:35;180.80;;;43.45;;
55216;SDS011;41086;46.736;15.666;2022-10-16T08:06:03;92.32;;;38.78;;
55216;SDS011;41086;46.736;15.666;2022-10-16T08:08:30;89.20;;;40.25;;
55216;SDS011;41086;46.736;15.666;2022-10-16T08:10:57;91.88;;;43.90;;
55216;SDS011;41086;46.736;15.666;2022-10-16T08:13:24;69.80;;;41.83;;
55216;SDS011;41086;46.736;15.666;2022-10-16T08:15:53;61.13;;;39.17;;
55216;SDS011;41086;46.736;15.666;2022-10-16T08:18:20;106.40;;;42.30;;
55216;SDS011;41086;46.736;15.666;2022-10-16T08:20:54;57.00;;;35.85;;
55216;SDS011;41086;46.736;15.666;2022-10-16T08:23:22;51.25;;;33.38;;
55216;SDS011;41086;46.736;15.666;2022-10-16T08:25:49;45.58;;;32.00;;
55216;SDS011;41086;46.736;15.666;2022-10-16T08:28:15;48.08;;;32.95;;
55216;SDS011;41086;46.736;15.666;2022-10-16T08:30:43;48.50;;;30.65;;
55216;SDS011;41086;46.736;15.666;2022-10-16T08:33:09;42.63;;;30.58;;
55216;SDS011;41086;46.736;15.666;2022-10-16T08:35:37;44.10;;;27.40;;
55216;SDS011;41086;46.736;15.666;2022-10-16T08:38:04;36.22;;;26.35;;
55216;SDS011;41086;46.736;15.666;2022-10-16T08:40:33;38.58;;;28.40;;
55216;SDS011;41086;46.736;15.666;2022-10-16T08:49:15;38.20;;;28.02;;
55216;SDS011;41086;46.736;15.666;2022-10-16T08:51:43;40.55;;;27.08;;
55216;SDS011;41086;46.736;15.666;2022-10-16T08:54:22;40.63;;;26.30;;
55216;SDS011;41086;46.736;15.666;2022-10-16T08:56:56;39.25;;;26.77;;
55216;SDS011;41086;46.736;15.666;2022-10-16T08:59:26;36.92;;;27.02;;
55216;SDS011;41086;46.736;15.666;2022-10-16T09:01:53;35.45;;;25.67;;
55216;SDS011;41086;46.736;15.666;2022-10-16T09:07:14;37.72;;;26.77;;
55216;SDS011;41086;46.736;15.666;2022-10-16T09:09:52;39.80;;;26.77;;
55216;SDS011;41086;46.736;15.666;2022-10-16T09:18:29;33.55;;;24.48;;
55216;SDS011;41086;46.736;15.666;2022-10-16T09:23:49;39.42;;;26.90;;
55216;SDS011;41086;46.736;15.666;2022-10-16T09:26:17;43.95;;;24.58;;
55216;SDS011;41086;46.736;15.666;2022-10-16T09:28:46;37.60;;;25.83;;
55216;SDS011;41086;46.736;15.666;2022-10-16T09:33:45;34.80;;;24.83;;
55216;SDS011;41086;46.736;15.666;2022-10-16T09:36:16;36.40;;;24.58;;
55216;SDS011;41086;46.736;15.666;2022-10-16T09:38:43;36.28;;;25.58;;
55216;SDS011;41086;46.736;15.666;2022-10-16T09:46:32;34.13;;;22.90;;
55216;SDS011;41086;46.736;15.666;2022-10-16T09:49:20;39.05;;;25.55;;
55216;SDS011;41086;46.736;15.666;2022-10-16T09:51:49;36.38;;;24.85;;
55216;SDS011;41086;46.736;15.666;2022-10-16T09:54:18;36.65;;;24.80;;
55216;SDS011;41086;46.736;15.666;2022-10-16T09:56:47;34.38;;;25.13;;
55216;SDS011;41086;46.736;15.666;2022-10-16T09:59:21;30.83;;;22.25;;
55216;SDS011;41086;46.736;15.666;2022-10-16T10:01:53;32.58;;;22.23;;
55216;SDS011;41086;46.736;15.666;2022-10-16T10:04:22;38.03;;;23.20;;
55216;SDS011;41086;46.736;15.666;2022-10-16T10:06:50;28.60;;;21.80;;
55216;SDS011;41086;46.736;15.666;2022-10-16T10:09:23;30.13;;;21.08;;
55216;SDS011;41086;46.736;15.666;2022-10-16T10:12:06;27.80;;;21.65;;
55216;SDS011;41086;46.736;15.666;2022-10-16T10:14:51;35.40;;;22.52;;
55216;SDS011;41086;46.736;15.666;2022-10-16T10:19:56;29.30;;;21.85;;
55216;SDS011;41086;46.736;15.666;2022-10-16T10:28:42;27.40;;;19.90;;
55216;SDS011;41086;46.736;15.666;2022-10-16T10:31:38;30.73;;;22.77;;
55216;SDS011;41086;46.736;15.666;2022-10-16T10:38:00;32.08;;;23.30;;
55216;SDS011;41086;46.736;15.666;2022-10-16T10:40:22;30.52;;;24.33;;
55216;SDS011;41086;46.736;15.666;2022-10-16T10:46:05;32.03;;;23.67;;
55216;SDS011;41086;46.736;15.666;2022-10-16T11:04:58;31.77;;;22.48;;
55216;SDS011;41086;46.736;15.666;2022-10-16T11:07:45;27.48;;;21.00;;
55216;SDS011;41086;46.736;15.666;2022-10-16T11:10:20;29.75;;;20.48;;
55216;SDS011;41086;46.736;15.666;2022-10-16T11:13:15;28.77;;;22.10;;
55216;SDS011;41086;46.736;15.666;2022-10-16T11:15:48;29.40;;;22.88;;
55216;SDS011;41086;46.736;15.666;2022-10-16T11:18:21;29.92;;;23.42;;
55216;SDS011;41086;46.736;15.666;2022-10-16T11:21:04;32.40;;;21.52;;
55216;SDS011;41086;46.736;15.666;2022-10-16T11:23:53;27.85;;;22.55;;
55216;SDS011;41086;46.736;15.666;2022-10-16T11:26:27;29.88;;;19.95;;
55216;SDS011;41086;46.736;15.666;2022-10-16T11:28:59;30.27;;;21.48;;
55216;SDS011;41086;46.736;15.666;2022-10-16T11:34:53;33.63;;;20.60;;
55216;SDS011;41086;46.736;15.666;2022-10-16T11:39:40;30.73;;;21.33;;
55216;SDS011;41086;46.736;15.666;2022-10-16T11:45:22;26.60;;;19.70;;
55216;SDS011;41086;46.736;15.666;2022-10-16T11:51:08;28.40;;;19.77;;
55216;SDS011;41086;46.736;15.666;2022-10-16T11:56:43;24.55;;;18.55;;
55216;SDS011;41086;46.736;15.666;2022-10-16T12:01:57;24.67;;;18.63;;
55216;SDS011;41086;46.736;15.666;2022-10-16T12:04:47;24.10;;;17.48;;
55216;SDS011;41086;46.736;15.666;2022-10-16T12:07:24;24.85;;;18.33;;
55216;SDS011;41086;46.736;15.666;2022-10-16T12:09:54;22.88;;;18.60;;
55216;SDS011;41086;46.736;15.666;2022-10-16T12:12:43;26.80;;;19.90;;
55216;SDS011;41086;46.736;15.666;2022-10-16T12:15:25;24.20;;;16.42;;
55216;SDS011;41086;46.736;15.666;2022-10-16T12:18:23;25.48;;;18.17;;
55216;SDS011;41086;46.736;15.666;2022-10-16T12:20:54;37.55;;;18.92;;
55216;SDS011;41086;46.736;15.666;2022-10-16T12:23:30;23.90;;;17.38;;
55216;SDS011;41086;46.736;15.666;2022-10-16T12:25:59;25.52;;;18.88;;
55216;SDS011;41086;46.736;15.666;2022-10-16T12:28:29;23.80;;;18.27;;
55216;SDS011;41086;46.736;15.666;2022-10-16T12:34:03;24.60;;;18.17;;
55216;SDS011;41086;46.736;15.666;2022-10-16T12:36:28;22.45;;;17.60;;
55216;SDS011;41086;46.736;15.666;2022-10-16T12:38:57;20.02;;;16.42;;
55216;SDS011;41086;46.736;15.666;2022-10-16T12:43:53;22.55;;;16.73;;
55216;SDS011;41086;46.736;15.666;2022-10-16T12:46:33;23.67;;;18.25;;
55216;SDS011;41086;46.736;15.666;2022-10-16T12:49:07;22.60;;;14.25;;
55216;SDS011;41086;46.736;15.666;2022-10-16T12:51:48;21.73;;;16.70;;
55216;SDS011;41086;46.736;15.666;2022-10-16T12:54:16;23.50;;;17.75;;
55216;SDS011;41086;46.736;15.666;2022-10-16T13:02:26;22.90;;;16.92;;
55216;SDS011;41086;46.736;15.666;2022-10-16T13:11:05;26.80;;;18.58;;
55216;SDS011;41086;46.736;15.666;2022-10-16T13:13:49;21.83;;;16.17;;
55216;SDS011;41086;46.736;15.666;2022-10-16T13:21:56;23.60;;;17.92;;
55216;SDS011;41086;46.736;15.666;2022-10-16T13:30:39;25.50;;;18.20;;
55216;SDS011;41086;46.736;15.666;2022-10-16T13:33:24;28.20;;;19.73;;
55216;SDS011;41086;46.736;15.666;2022-10-16T13:36:19;23.58;;;17.77;;
55216;SDS011;41086;46.736;15.666;2022-10-16T13:38:48;25.33;;;17.40;;
55216;SDS011;41086;46.736;15.666;2022-10-16T13:41:16;23.67;;;17.70;;
55216;SDS011;41086;46.736;15.666;2022-10-16T13:46:14;25.77;;;17.70;;
55216;SDS011;41086;46.736;15.666;2022-10-16T13:48:41;25.67;;;16.67;;
55216;SDS011;41086;46.736;15.666;2022-10-16T13:51:13;27.05;;;17.15;;
55216;SDS011;41086;46.736;15.666;2022-10-16T13:53:44;28.45;;;18.13;;
55216;SDS011;41086;46.736;15.666;2022-10-16T13:56:13;27.92;;;19.08;;
55216;SDS011;41086;46.736;15.666;2022-10-16T13:58:42;21.70;;;17.33;;
55216;SDS011;41086;46.736;15.666;2022-10-16T14:01:15;31.40;;;21.38;;
55216;SDS011;41086;46.736;15.666;2022-10-16T14:03:46;23.65;;;18.40;;
55216;SDS011;41086;46.736;15.666;2022-10-16T14:06:14;28.05;;;17.70;;
55216;SDS011;41086;46.736;15.666;2022-10-16T14:08:48;23.98;;;19.15;;
55216;SDS011;41086;46.736;15.666;2022-10-16T14:11:25;30.15;;;19.13;;
55216;SDS011;41086;46.736;15.666;2022-10-16T14:13:52;23.63;;;17.98;;
55216;SDS011;41086;46.736;15.666;2022-10-16T14:16:21;24.00;;;18.77;;
55216;SDS011;41086;46.736;15.666;2022-10-16T14:18:57;25.50;;;20.17;;
55216;SDS011;41086;46.736;15.666;2022-10-16T14:21:26;30.40;;;19.30;;
55216;SDS011;41086;46.736;15.666;2022-10-16T14:23:54;27.48;;;21.23;;
55216;SDS011;41086;46.736;15.666;2022-10-16T14:26:23;28.38;;;20.70;;
55216;SDS011;41086;46.736;15.666;2022-10-16T14:29:03;28.38;;;20.58;;
55216;SDS011;41086;46.736;15.666;2022-10-16T14:31:37;23.52;;;18.58;;
55216;SDS011;41086;46.736;15.666;2022-10-16T14:34:27;25.95;;;19.85;;
55216;SDS011;41086;46.736;15.666;2022-10-16T14:37:13;23.98;;;20.77;;
55216;SDS011;41086;46.736;15.666;2022-10-16T14:39:53;28.58;;;19.65;;
55216;SDS011;41086;46.736;15.666;2022-10-16T14:42:22;26.73;;;19.08;;
55216;SDS011;41086;46.736;15.666;2022-10-16T14:44:52;26.70;;;20.20;;
55216;SDS011;41086;46.736;15.666;2022-10-16T14:47:24;26.95;;;20.33;;
55216;SDS011;41086;46.736;15.666;2022-10-16T14:49:53;27.58;;;21.33;;
55216;SDS011;41086;46.736;15.666;2022-10-16T14:52:22;28.25;;;19.45;;
55216;SDS011;41086;46.736;15.666;2022-10-16T14:54:49;29.88;;;20.85;;
55216;SDS011;41086;46.736;15.666;2022-10-16T14:57:17;31.60;;;19.58;;
55216;SDS011;41086;46.736;15.666;2022-10-16T14:59:46;26.85;;;20.42;;
55216;SDS011;41086;46.736;15.666;2022-10-16T15:02:26;25.42;;;20.92;;
55216;SDS011;41086;46.736;15.666;2022-10-16T15:04:55;30.42;;;20.85;;
55216;SDS011;41086;46.736;15.666;2022-10-16T15:07:23;32.78;;;22.20;;
55216;SDS011;41086;46.736;15.666;2022-10-16T15:09:50;26.83;;;20.35;;
55216;SDS011;41086;46.736;15.666;2022-10-16T15:12:17;29.75;;;21.48;;
55216;SDS011;41086;46.736;15.666;2022-10-16T15:14:44;27.15;;;20.95;;
55216;SDS011;41086;46.736;15.666;2022-10-16T15:17:11;28.02;;;22.38;;
55216;SDS011;41086;46.736;15.666;2022-10-16T15:19:40;34.33;;;22.90;;
55216;SDS011;41086;46.736;15.666;2022-10-16T15:22:08;27.02;;;21.35;;
55216;SDS011;41086;46.736;15.666;2022-10-16T15:24:37;26.75;;;21.38;;
55216;SDS011;41086;46.736;15.666;2022-10-16T15:27:04;29.00;;;21.38;;
55216;SDS011;41086;46.736;15.666;2022-10-16T15:29:31;27.38;;;21.65;;
55216;SDS011;41086;46.736;15.666;2022-10-16T15:31:57;26.17;;;20.13;;
55216;SDS011;41086;46.736;15.666;2022-10-16T15:34:24;28.65;;;21.77;;
55216;SDS011;41086;46.736;15.666;2022-10-16T15:36:51;29.98;;;21.33;;
55216;SDS011;41086;46.736;15.666;2022-10-16T15:39:19;32.17;;;22.05;;
55216;SDS011;41086;46.736;15.666;2022-10-16T15:41:46;32.42;;;21.42;;
55216;SDS011;41086;46.736;15.666;2022-10-16T15:44:17;31.65;;;22.80;;
55216;SDS011;41086;46.736;15.666;2022-10-16T15:46:44;34.90;;;22.23;;
55216;SDS011;41086;46.736;15.666;2022-10-16T15:49:11;32.83;;;23.60;;
55216;SDS011;41086;46.736;15.666;2022-10-16T15:51:38;31.20;;;22.55;;
55216;SDS011;41086;46.736;15.666;2022-10-16T15:54:06;28.85;;;21.60;;
55216;SDS011;41086;46.736;15.666;2022-10-16T15:56:33;30.02;;;23.52;;
55216;SDS011;41086;46.736;15.666;2022-10-16T15:59:03;30.02;;;23.42;;
55216;SDS011;41086;46.736;15.666;2022-10-16T16:01:34;32.42;;;22.98;;
55216;SDS011;41086;46.736;15.666;2022-10-16T16:04:02;32.08;;;23.10;;
55216;SDS011;41086;46.736;15.666;2022-10-16T16:06:45;30.63;;;24.55;;
55216;SDS011;41086;46.736;15.666;2022-10-16T16:09:12;35.25;;;24.58;;
55216;SDS011;41086;46.736;15.666;2022-10-16T16:11:40;33.72;;;24.58;;
55216;SDS011;41086;46.736;15.666;2022-10-16T16:14:08;37.70;;;23.10;;
55216;SDS011;41086;46.736;15.666;2022-10-16T16:16:39;35.22;;;24.23;;
55216;SDS011;41086;46.736;15.666;2022-10-16T16:21:37;37.38;;;24.77;;
55216;SDS011;41086;46.736;15.666;2022-10-16T16:26:35;37.42;;;25.55;;
55216;SDS011;41086;46.736;15.666;2022-10-16T16:29:06;39.67;;;28.02;;
55216;SDS011;41086;46.736;15.666;2022-10-16T16:31:33;40.25;;;31.42;;
55216;SDS011;41086;46.736;15.666;2022-10-16T16:34:01;41.45;;;27.85;;
55216;SDS011;41086;46.736;15.666;2022-10-16T16:36:28;42.80;;;24.92;;
55216;SDS011;41086;46.736;15.666;2022-10-16T16:41:24;33.33;;;22.98;;
55216;SDS011;41086;46.736;15.666;2022-10-16T16:43:53;39.58;;;25.80;;
55216;SDS011;41086;46.736;15.666;2022-10-16T16:46:20;42.35;;;25.15;;
55216;SDS011;41086;46.736;15.666;2022-10-16T16:48:48;38.83;;;26.02;;